sensor_id;sensor_type;location;lat;lon;timestamp;temperature;humidity
40964;DHT22;26693;51.168;4.138;2022-10-16T00:00:35;15.20;99.90
40964;DHT22;26693;51.168;4.138;2022-10-16T00:01:36;15.20;99.90
40964;DHT22;26693;51.168;4.138;2022-10-16T00:02:37;15.20;99.90
40964;DHT22;26693;51.168;4.138;2022-10-16T00:03:39;15.30;99.90
40964;DHT22;26693;51.168;4.138;2022-10-16T00:04:40;15.30;99.90
40964;DHT22;26693;51.168;4.138;2022-10-16T00:05:42;15.30;99.90
40964;DHT22;26693;51.168;4.138;2022-10-16T00:06:43;15.30;99.90
40964;DHT22;26693;51.168;4.138;2022-10-16T00:07:44;15.10;99.90
40964;DHT22;26693;51.168;4.138;2022-10-16T00:08:45;15.10;99.90
40964;DHT22;26693;51.168;4.138;2022-10-16T00:09:46;15.10;99.90
40964;DHT22;26693;51.168;4.138;2022-10-16T00:10:46;15.10;99.90
40964;DHT22;26693;51.168;4.138;2022-10-16T00:11:47;15.10;99.90
40964;DHT22;26693;51.168;4.138;2022-10-16T00:12:47;15.00;99.90
40964;DHT22;26693;51.168;4.138;2022-10-16T00:13:51;14.90;99.90
40964;DHT22;26693;51.168;4.138;2022-10-16T00:14:52;14.90;99.90
40964;DHT22;26693;51.168;4.138;2022-10-16T00:15:55;14.90;99.90
40964;DHT22;26693;51.168;4.138;2022-10-16T00:16:56;14.90;99.90
40964;DHT22;26693;51.168;4.138;2022-10-16T00:17:56;14.90;99.90
40964;DHT22;26693;51.168;4.138;2022-10-16T00:18:57;14.90;99.90
40964;DHT22;26693;51.168;4.138;2022-10-16T00:19:58;15.00;99.90
40964;DHT22;26693;51.168;4.138;2022-10-16T00:21:19;15.00;99.90
40964;DHT22;26693;51.168;4.138;2022-10-16T00:22:19;15.10;99.90
40964;DHT22;26693;51.168;4.138;2022-10-16T00:23:21;14.90;99.90
40964;DHT22;26693;51.168;4.138;2022-10-16T00:24:21;15.00;99.90
40964;DHT22;26693;51.168;4.138;2022-10-16T00:25:22;14.90;99.90
40964;DHT22;26693;51.168;4.138;2022-10-16T00:26:23;14.90;99.90
40964;DHT22;26693;51.168;4.138;2022-10-16T00:27:23;14.80;99.90
40964;DHT22;26693;51.168;4.138;2022-10-16T00:28:24;14.80;99.90
40964;DHT22;26693;51.168;4.138;2022-10-16T00:29:25;14.80;99.90
40964;DHT22;26693;51.168;4.138;2022-10-16T00:30:25;14.80;99.90
40964;DHT22;26693;51.168;4.138;2022-10-16T00:31:28;14.80;99.90
40964;DHT22;26693;51.168;4.138;2022-10-16T00:32:28;14.80;99.90
40964;DHT22;26693;51.168;4.138;2022-10-16T00:33:29;14.80;99.90
40964;DHT22;26693;51.168;4.138;2022-10-16T00:34:29;14.70;99.90
40964;DHT22;26693;51.168;4.138;2022-10-16T00:35:31;14.60;99.90
40964;DHT22;26693;51.168;4.138;2022-10-16T00:36:31;14.70;99.90
40964;DHT22;26693;51.168;4.138;2022-10-16T00:37:32;14.70;99.90
40964;DHT22;26693;51.168;4.138;2022-10-16T00:38:33;14.80;99.90
40964;DHT22;26693;51.168;4.138;2022-10-16T00:39:33;14.90;99.90
40964;DHT22;26693;51.168;4.138;2022-10-16T00:40:34;14.90;99.90
40964;DHT22;26693;51.168;4.138;2022-10-16T00:41:37;15.00;99.90
40964;DHT22;26693;51.168;4.138;2022-10-16T00:42:38;15.00;99.90
40964;DHT22;26693;51.168;4.138;2022-10-16T00:44:53;15.00;99.90
40964;DHT22;26693;51.168;4.138;2022-10-16T00:45:54;15.00;99.90
40964;DHT22;26693;51.168;4.138;2022-10-16T00:46:55;15.00;99.90
40964;DHT22;26693;51.168;4.138;2022-10-16T00:47:56;15.10;99.90
40964;DHT22;26693;51.168;4.138;2022-10-16T00:50:12;14.90;99.90
40964;DHT22;26693;51.168;4.138;2022-10-16T00:51:14;15.00;99.90
40964;DHT22;26693;51.168;4.138;2022-10-16T00:52:15;14.90;99.90
40964;DHT22;26693;51.168;4.138;2022-10-16T00:53:17;15.00;99.90
40964;DHT22;26693;51.168;4.138;2022-10-16T00:54:21;15.00;99.90
40964;DHT22;26693;51.168;4.138;2022-10-16T00:55:23;14.90;99.90
40964;DHT22;26693;51.168;4.138;2022-10-16T00:56:24;14.90;99.90
40964;DHT22;26693;51.168;4.138;2022-10-16T00:57:25;15.00;99.90
40964;DHT22;26693;51.168;4.138;2022-10-16T00:58:25;15.00;99.90
40964;DHT22;26693;51.168;4.138;2022-10-16T00:59:32;14.90;99.90
40964;DHT22;26693;51.168;4.138;2022-10-16T01:00:33;15.00;99.90
40964;DHT22;26693;51.168;4.138;2022-10-16T01:01:33;15.00;99.90
40964;DHT22;26693;51.168;4.138;2022-10-16T01:02:34;14.80;99.90
40964;DHT22;26693;51.168;4.138;2022-10-16T01:03:36;14.80;99.90
40964;DHT22;26693;51.168;4.138;2022-10-16T01:04:47;14.80;99.90
40964;DHT22;26693;51.168;4.138;2022-10-16T01:06:45;14.80;99.90
40964;DHT22;26693;51.168;4.138;2022-10-16T01:08:53;14.80;99.90
40964;DHT22;26693;51.168;4.138;2022-10-16T01:10:17;14.80;99.90
40964;DHT22;26693;51.168;4.138;2022-10-16T01:12:43;14.80;99.90
40964;DHT22;26693;51.168;4.138;2022-10-16T01:13:48;14.70;99.90
40964;DHT22;26693;51.168;4.138;2022-10-16T01:16:28;14.80;99.90
40964;DHT22;26693;51.168;4.138;2022-10-16T01:17:48;14.80;99.90
40964;DHT22;26693;51.168;4.138;2022-10-16T01:18:57;14.80;99.90
40964;DHT22;26693;51.168;4.138;2022-10-16T01:21:22;14.90;99.90
40964;DHT22;26693;51.168;4.138;2022-10-16T01:22:26;15.00;99.90
40964;DHT22;26693;51.168;4.138;2022-10-16T01:24:39;15.00;99.90
40964;DHT22;26693;51.168;4.138;2022-10-16T01:27:12;14.90;99.90
40964;DHT22;26693;51.168;4.138;2022-10-16T01:28:15;14.90;99.90
40964;DHT22;26693;51.168;4.138;2022-10-16T01:29:21;14.80;99.90
40964;DHT22;26693;51.168;4.138;2022-10-16T01:30:28;14.70;99.90
40964;DHT22;26693;51.168;4.138;2022-10-16T01:31:34;14.70;99.90
40964;DHT22;26693;51.168;4.138;2022-10-16T01:32:42;14.70;99.90
40964;DHT22;26693;51.168;4.138;2022-10-16T01:33:47;14.80;99.90
40964;DHT22;26693;51.168;4.138;2022-10-16T01:34:54;14.80;99.90
40964;DHT22;26693;51.168;4.138;2022-10-16T01:36:06;14.90;99.90
40964;DHT22;26693;51.168;4.138;2022-10-16T01:37:12;14.80;99.90
40964;DHT22;26693;51.168;4.138;2022-10-16T01:38:31;14.80;99.90
40964;DHT22;26693;51.168;4.138;2022-10-16T01:39:37;14.80;99.90
40964;DHT22;26693;51.168;4.138;2022-10-16T01:40:41;14.80;99.90
40964;DHT22;26693;51.168;4.138;2022-10-16T01:41:55;14.80;99.90
40964;DHT22;26693;51.168;4.138;2022-10-16T01:43:02;14.80;99.90
40964;DHT22;26693;51.168;4.138;2022-10-16T01:44:17;14.80;99.90
40964;DHT22;26693;51.168;4.138;2022-10-16T01:45:19;14.80;99.90
40964;DHT22;26693;51.168;4.138;2022-10-16T01:46:21;14.70;99.90
40964;DHT22;26693;51.168;4.138;2022-10-16T01:47:24;14.70;99.90
40964;DHT22;26693;51.168;4.138;2022-10-16T01:48:25;14.60;99.90
40964;DHT22;26693;51.168;4.138;2022-10-16T01:49:30;14.70;99.90
40964;DHT22;26693;51.168;4.138;2022-10-16T01:50:33;14.70;99.90
40964;DHT22;26693;51.168;4.138;2022-10-16T01:51:37;14.60;99.90
40964;DHT22;26693;51.168;4.138;2022-10-16T01:52:41;14.60;99.90
40964;DHT22;26693;51.168;4.138;2022-10-16T01:53:48;14.60;99.90
40964;DHT22;26693;51.168;4.138;2022-10-16T01:54:51;14.60;99.90
40964;DHT22;26693;51.168;4.138;2022-10-16T01:55:55;14.50;99.90
40964;DHT22;26693;51.168;4.138;2022-10-16T01:56:56;14.60;99.90
40964;DHT22;26693;51.168;4.138;2022-10-16T01:57:59;14.60;99.90
40964;DHT22;26693;51.168;4.138;2022-10-16T01:59:05;14.60;99.90
40964;DHT22;26693;51.168;4.138;2022-10-16T02:00:10;14.70;99.90
40964;DHT22;26693;51.168;4.138;2022-10-16T02:01:15;14.70;99.90
40964;DHT22;26693;51.168;4.138;2022-10-16T02:02:19;14.60;99.90
40964;DHT22;26693;51.168;4.138;2022-10-16T02:03:20;14.70;99.90
40964;DHT22;26693;51.168;4.138;2022-10-16T02:04:29;14.70;99.90
40964;DHT22;26693;51.168;4.138;2022-10-16T02:05:44;14.70;99.90
40964;DHT22;26693;51.168;4.138;2022-10-16T02:06:45;14.80;99.90
40964;DHT22;26693;51.168;4.138;2022-10-16T02:07:46;14.90;99.90
40964;DHT22;26693;51.168;4.138;2022-10-16T02:08:47;15.00;99.90
40964;DHT22;26693;51.168;4.138;2022-10-16T02:09:48;14.90;99.90
40964;DHT22;26693;51.168;4.138;2022-10-16T02:10:48;14.90;99.90
40964;DHT22;26693;51.168;4.138;2022-10-16T02:11:52;14.80;99.90
40964;DHT22;26693;51.168;4.138;2022-10-16T02:12:59;14.80;99.90
40964;DHT22;26693;51.168;4.138;2022-10-16T02:14:04;14.80;99.90
40964;DHT22;26693;51.168;4.138;2022-10-16T02:15:05;14.70;99.90
40964;DHT22;26693;51.168;4.138;2022-10-16T02:16:06;14.60;99.90
40964;DHT22;26693;51.168;4.138;2022-10-16T02:17:15;14.50;99.90
40964;DHT22;26693;51.168;4.138;2022-10-16T02:18:16;14.50;99.90
40964;DHT22;26693;51.168;4.138;2022-10-16T02:19:18;14.50;99.90
40964;DHT22;26693;51.168;4.138;2022-10-16T02:20:25;14.60;99.90
40964;DHT22;26693;51.168;4.138;2022-10-16T02:21:40;14.60;99.90
40964;DHT22;26693;51.168;4.138;2022-10-16T02:22:46;14.60;99.90
40964;DHT22;26693;51.168;4.138;2022-10-16T02:23:54;14.70;99.90
40964;DHT22;26693;51.168;4.138;2022-10-16T02:24:59;14.70;99.90
40964;DHT22;26693;51.168;4.138;2022-10-16T02:26:03;14.70;99.90
40964;DHT22;26693;51.168;4.138;2022-10-16T02:27:34;14.70;99.90
40964;DHT22;26693;51.168;4.138;2022-10-16T02:28:43;14.60;99.90
40964;DHT22;26693;51.168;4.138;2022-10-16T02:29:54;14.50;99.90
40964;DHT22;26693;51.168;4.138;2022-10-16T02:31:01;14.40;99.90
40964;DHT22;26693;51.168;4.138;2022-10-16T02:32:04;14.40;99.90
40964;DHT22;26693;51.168;4.138;2022-10-16T02:33:09;14.50;99.90
40964;DHT22;26693;51.168;4.138;2022-10-16T02:34:12;14.50;99.90
40964;DHT22;26693;51.168;4.138;2022-10-16T02:35:17;14.50;99.90
40964;DHT22;26693;51.168;4.138;2022-10-16T02:36:18;14.50;99.90
40964;DHT22;26693;51.168;4.138;2022-10-16T02:37:19;14.50;99.90
40964;DHT22;26693;51.168;4.138;2022-10-16T02:38:20;14.40;99.90
40964;DHT22;26693;51.168;4.138;2022-10-16T02:39:21;14.50;99.90
40964;DHT22;26693;51.168;4.138;2022-10-16T02:40:22;14.40;99.90
40964;DHT22;26693;51.168;4.138;2022-10-16T02:41:23;14.40;99.90
40964;DHT22;26693;51.168;4.138;2022-10-16T02:42:29;14.40;99.90
40964;DHT22;26693;51.168;4.138;2022-10-16T02:43:30;14.50;99.90
40964;DHT22;26693;51.168;4.138;2022-10-16T02:44:30;14.40;99.90
40964;DHT22;26693;51.168;4.138;2022-10-16T02:45:31;14.30;99.90
40964;DHT22;26693;51.168;4.138;2022-10-16T02:46:31;14.30;99.90
40964;DHT22;26693;51.168;4.138;2022-10-16T02:47:32;14.30;99.90
40964;DHT22;26693;51.168;4.138;2022-10-16T02:48:33;14.40;99.90
40964;DHT22;26693;51.168;4.138;2022-10-16T02:49:33;14.40;99.90
40964;DHT22;26693;51.168;4.138;2022-10-16T02:50:34;14.40;99.90
40964;DHT22;26693;51.168;4.138;2022-10-16T02:51:34;14.40;99.90
40964;DHT22;26693;51.168;4.138;2022-10-16T02:52:35;14.20;99.90
40964;DHT22;26693;51.168;4.138;2022-10-16T02:53:35;14.20;99.90
40964;DHT22;26693;51.168;4.138;2022-10-16T02:54:36;14.10;99.90
40964;DHT22;26693;51.168;4.138;2022-10-16T02:55:36;14.20;99.90
40964;DHT22;26693;51.168;4.138;2022-10-16T02:56:37;14.20;99.90
40964;DHT22;26693;51.168;4.138;2022-10-16T02:57:37;14.20;99.90
40964;DHT22;26693;51.168;4.138;2022-10-16T02:58:40;14.30;99.90
40964;DHT22;26693;51.168;4.138;2022-10-16T02:59:41;14.30;99.90
40964;DHT22;26693;51.168;4.138;2022-10-16T03:00:41;14.40;99.90
40964;DHT22;26693;51.168;4.138;2022-10-16T03:01:42;14.40;99.90
40964;DHT22;26693;51.168;4.138;2022-10-16T03:02:43;14.40;99.90
40964;DHT22;26693;51.168;4.138;2022-10-16T03:03:44;14.30;99.90
40964;DHT22;26693;51.168;4.138;2022-10-16T03:04:44;14.40;99.90
40964;DHT22;26693;51.168;4.138;2022-10-16T03:05:45;14.40;99.90
40964;DHT22;26693;51.168;4.138;2022-10-16T03:06:48;14.40;99.90
40964;DHT22;26693;51.168;4.138;2022-10-16T03:07:49;14.30;99.90
40964;DHT22;26693;51.168;4.138;2022-10-16T03:08:49;14.30;99.90
40964;DHT22;26693;51.168;4.138;2022-10-16T03:09:49;14.30;99.90
40964;DHT22;26693;51.168;4.138;2022-10-16T03:10:51;14.30;99.90
40964;DHT22;26693;51.168;4.138;2022-10-16T03:11:51;14.40;99.90
40964;DHT22;26693;51.168;4.138;2022-10-16T03:12:52;14.40;99.90
40964;DHT22;26693;51.168;4.138;2022-10-16T03:13:53;14.40;99.90
40964;DHT22;26693;51.168;4.138;2022-10-16T03:14:55;14.50;99.90
40964;DHT22;26693;51.168;4.138;2022-10-16T03:15:55;14.50;99.90
40964;DHT22;26693;51.168;4.138;2022-10-16T03:16:56;14.40;99.90
40964;DHT22;26693;51.168;4.138;2022-10-16T03:18:00;14.40;99.90
40964;DHT22;26693;51.168;4.138;2022-10-16T03:19:01;14.50;99.90
40964;DHT22;26693;51.168;4.138;2022-10-16T03:20:02;14.50;99.90
40964;DHT22;26693;51.168;4.138;2022-10-16T03:21:02;14.50;99.90
40964;DHT22;26693;51.168;4.138;2022-10-16T03:22:03;14.50;99.90
40964;DHT22;26693;51.168;4.138;2022-10-16T03:23:03;14.40;99.90
40964;DHT22;26693;51.168;4.138;2022-10-16T03:24:04;14.30;99.90
40964;DHT22;26693;51.168;4.138;2022-10-16T03:25:05;14.30;99.90
40964;DHT22;26693;51.168;4.138;2022-10-16T03:26:06;14.20;99.90
40964;DHT22;26693;51.168;4.138;2022-10-16T03:27:06;14.20;99.90
40964;DHT22;26693;51.168;4.138;2022-10-16T03:28:07;14.20;99.90
40964;DHT22;26693;51.168;4.138;2022-10-16T03:29:08;14.20;99.90
40964;DHT22;26693;51.168;4.138;2022-10-16T03:30:09;14.20;99.90
40964;DHT22;26693;51.168;4.138;2022-10-16T03:31:09;14.20;99.90
40964;DHT22;26693;51.168;4.138;2022-10-16T03:32:10;14.20;99.90
40964;DHT22;26693;51.168;4.138;2022-10-16T03:33:11;14.30;99.90
40964;DHT22;26693;51.168;4.138;2022-10-16T03:34:11;14.30;99.90
40964;DHT22;26693;51.168;4.138;2022-10-16T03:35:12;14.30;99.90
40964;DHT22;26693;51.168;4.138;2022-10-16T03:36:12;14.30;99.90
40964;DHT22;26693;51.168;4.138;2022-10-16T03:37:13;14.20;99.90
40964;DHT22;26693;51.168;4.138;2022-10-16T03:38:14;14.20;99.90
40964;DHT22;26693;51.168;4.138;2022-10-16T03:39:14;14.10;99.90
40964;DHT22;26693;51.168;4.138;2022-10-16T03:40:15;14.10;99.90
40964;DHT22;26693;51.168;4.138;2022-10-16T03:41:16;14.00;99.90
40964;DHT22;26693;51.168;4.138;2022-10-16T03:42:16;14.10;99.90
40964;DHT22;26693;51.168;4.138;2022-10-16T03:43:17;14.10;99.90
40964;DHT22;26693;51.168;4.138;2022-10-16T03:44:18;14.20;99.90
40964;DHT22;26693;51.168;4.138;2022-10-16T03:45:18;14.20;99.90
40964;DHT22;26693;51.168;4.138;2022-10-16T03:46:18;14.20;99.90
40964;DHT22;26693;51.168;4.138;2022-10-16T03:47:19;14.20;99.90
40964;DHT22;26693;51.168;4.138;2022-10-16T03:48:22;14.20;99.90
40964;DHT22;26693;51.168;4.138;2022-10-16T03:49:22;14.30;99.90
40964;DHT22;26693;51.168;4.138;2022-10-16T03:50:23;14.40;99.90
40964;DHT22;26693;51.168;4.138;2022-10-16T03:51:23;14.40;99.90
40964;DHT22;26693;51.168;4.138;2022-10-16T03:52:24;14.20;99.90
40964;DHT22;26693;51.168;4.138;2022-10-16T03:53:25;14.20;99.90
40964;DHT22;26693;51.168;4.138;2022-10-16T03:54:25;14.20;99.90
40964;DHT22;26693;51.168;4.138;2022-10-16T03:55:26;14.20;99.90
40964;DHT22;26693;51.168;4.138;2022-10-16T03:56:26;14.30;99.90
40964;DHT22;26693;51.168;4.138;2022-10-16T03:57:27;14.30;99.90
40964;DHT22;26693;51.168;4.138;2022-10-16T03:58:28;14.20;99.90
40964;DHT22;26693;51.168;4.138;2022-10-16T03:59:28;14.20;99.90
40964;DHT22;26693;51.168;4.138;2022-10-16T04:00:29;14.30;99.90
40964;DHT22;26693;51.168;4.138;2022-10-16T04:01:29;14.30;99.90
40964;DHT22;26693;51.168;4.138;2022-10-16T04:02:30;14.20;99.90
40964;DHT22;26693;51.168;4.138;2022-10-16T04:03:30;14.20;99.90
40964;DHT22;26693;51.168;4.138;2022-10-16T04:04:31;14.30;99.90
40964;DHT22;26693;51.168;4.138;2022-10-16T04:05:31;14.30;99.90
40964;DHT22;26693;51.168;4.138;2022-10-16T04:06:32;14.30;99.90
40964;DHT22;26693;51.168;4.138;2022-10-16T04:07:32;14.30;99.90
40964;DHT22;26693;51.168;4.138;2022-10-16T04:08:33;14.20;99.90
40964;DHT22;26693;51.168;4.138;2022-10-16T04:09:35;14.30;99.90
40964;DHT22;26693;51.168;4.138;2022-10-16T04:10:35;14.30;99.90
40964;DHT22;26693;51.168;4.138;2022-10-16T04:11:36;14.30;99.90
40964;DHT22;26693;51.168;4.138;2022-10-16T04:12:36;14.30;99.90
40964;DHT22;26693;51.168;4.138;2022-10-16T04:13:37;14.20;99.90
40964;DHT22;26693;51.168;4.138;2022-10-16T04:14:37;14.20;99.90
40964;DHT22;26693;51.168;4.138;2022-10-16T04:15:38;14.20;99.90
40964;DHT22;26693;51.168;4.138;2022-10-16T04:16:39;14.20;99.90
40964;DHT22;26693;51.168;4.138;2022-10-16T04:17:39;14.10;99.90
40964;DHT22;26693;51.168;4.138;2022-10-16T04:18:40;14.20;99.90
40964;DHT22;26693;51.168;4.138;2022-10-16T04:19:40;14.20;99.90
40964;DHT22;26693;51.168;4.138;2022-10-16T04:20:41;14.30;99.90
40964;DHT22;26693;51.168;4.138;2022-10-16T04:21:41;14.30;99.90
40964;DHT22;26693;51.168;4.138;2022-10-16T04:22:42;14.30;99.90
40964;DHT22;26693;51.168;4.138;2022-10-16T04:23:42;14.20;99.90
40964;DHT22;26693;51.168;4.138;2022-10-16T04:24:43;14.20;99.90
40964;DHT22;26693;51.168;4.138;2022-10-16T04:25:44;14.10;99.90
40964;DHT22;26693;51.168;4.138;2022-10-16T04:26:44;14.20;99.90
40964;DHT22;26693;51.168;4.138;2022-10-16T04:27:45;14.20;99.90
40964;DHT22;26693;51.168;4.138;2022-10-16T04:28:45;14.20;99.90
40964;DHT22;26693;51.168;4.138;2022-10-16T04:29:46;14.20;99.90
40964;DHT22;26693;51.168;4.138;2022-10-16T04:30:46;14.20;99.90
40964;DHT22;26693;51.168;4.138;2022-10-16T04:31:47;14.20;99.90
40964;DHT22;26693;51.168;4.138;2022-10-16T04:32:48;14.20;99.90
40964;DHT22;26693;51.168;4.138;2022-10-16T04:33:50;14.20;99.90
40964;DHT22;26693;51.168;4.138;2022-10-16T04:34:50;14.20;99.90
40964;DHT22;26693;51.168;4.138;2022-10-16T04:36:01;14.20;99.90
40964;DHT22;26693;51.168;4.138;2022-10-16T04:37:02;14.20;99.90
40964;DHT22;26693;51.168;4.138;2022-10-16T04:38:03;14.10;99.90
40964;DHT22;26693;51.168;4.138;2022-10-16T04:39:03;14.20;99.90
40964;DHT22;26693;51.168;4.138;2022-10-16T04:40:04;14.00;99.90
40964;DHT22;26693;51.168;4.138;2022-10-16T04:41:05;14.00;99.90
40964;DHT22;26693;51.168;4.138;2022-10-16T04:42:06;14.00;99.90
40964;DHT22;26693;51.168;4.138;2022-10-16T04:43:06;14.10;99.90
40964;DHT22;26693;51.168;4.138;2022-10-16T04:44:07;14.10;99.90
40964;DHT22;26693;51.168;4.138;2022-10-16T04:45:08;14.10;99.90
40964;DHT22;26693;51.168;4.138;2022-10-16T04:46:09;14.20;99.90
40964;DHT22;26693;51.168;4.138;2022-10-16T04:47:10;14.20;99.90
40964;DHT22;26693;51.168;4.138;2022-10-16T04:48:11;14.20;99.90
40964;DHT22;26693;51.168;4.138;2022-10-16T04:49:11;14.10;99.90
40964;DHT22;26693;51.168;4.138;2022-10-16T04:50:12;14.10;99.90
40964;DHT22;26693;51.168;4.138;2022-10-16T04:51:13;14.10;99.90
40964;DHT22;26693;51.168;4.138;2022-10-16T04:52:13;14.20;99.90
40964;DHT22;26693;51.168;4.138;2022-10-16T04:53:14;14.10;99.90
40964;DHT22;26693;51.168;4.138;2022-10-16T04:54:14;14.10;99.90
40964;DHT22;26693;51.168;4.138;2022-10-16T04:55:15;14.20;99.90
40964;DHT22;26693;51.168;4.138;2022-10-16T04:56:16;14.10;99.90
40964;DHT22;26693;51.168;4.138;2022-10-16T04:57:17;14.10;99.90
40964;DHT22;26693;51.168;4.138;2022-10-16T04:58:17;14.10;99.90
40964;DHT22;26693;51.168;4.138;2022-10-16T04:59:19;14.00;99.90
40964;DHT22;26693;51.168;4.138;2022-10-16T05:00:20;14.00;99.90
40964;DHT22;26693;51.168;4.138;2022-10-16T05:01:22;14.00;99.90
40964;DHT22;26693;51.168;4.138;2022-10-16T05:02:22;13.90;99.90
40964;DHT22;26693;51.168;4.138;2022-10-16T05:03:23;14.00;99.90
40964;DHT22;26693;51.168;4.138;2022-10-16T05:04:23;14.00;99.90
40964;DHT22;26693;51.168;4.138;2022-10-16T05:05:24;14.00;99.90
40964;DHT22;26693;51.168;4.138;2022-10-16T05:06:25;14.00;99.90
40964;DHT22;26693;51.168;4.138;2022-10-16T05:07:25;14.00;99.90
40964;DHT22;26693;51.168;4.138;2022-10-16T05:08:26;14.00;99.90
40964;DHT22;26693;51.168;4.138;2022-10-16T05:09:26;14.00;99.90
40964;DHT22;26693;51.168;4.138;2022-10-16T05:10:27;13.90;99.90
40964;DHT22;26693;51.168;4.138;2022-10-16T05:11:28;13.90;99.90
40964;DHT22;26693;51.168;4.138;2022-10-16T05:12:28;13.90;99.90
40964;DHT22;26693;51.168;4.138;2022-10-16T05:13:29;13.90;99.90
40964;DHT22;26693;51.168;4.138;2022-10-16T05:14:29;13.80;99.90
40964;DHT22;26693;51.168;4.138;2022-10-16T05:15:31;13.90;99.90
40964;DHT22;26693;51.168;4.138;2022-10-16T05:16:31;13.90;99.90
40964;DHT22;26693;51.168;4.138;2022-10-16T05:17:32;14.00;99.90
40964;DHT22;26693;51.168;4.138;2022-10-16T05:18:32;14.00;99.90
40964;DHT22;26693;51.168;4.138;2022-10-16T05:19:33;14.10;99.90
40964;DHT22;26693;51.168;4.138;2022-10-16T05:20:33;14.10;99.90
40964;DHT22;26693;51.168;4.138;2022-10-16T05:21:37;14.10;99.90
40964;DHT22;26693;51.168;4.138;2022-10-16T05:22:38;14.10;99.90
40964;DHT22;26693;51.168;4.138;2022-10-16T05:23:38;14.10;99.90
40964;DHT22;26693;51.168;4.138;2022-10-16T05:24:39;14.10;99.90
40964;DHT22;26693;51.168;4.138;2022-10-16T05:25:39;14.00;99.90
40964;DHT22;26693;51.168;4.138;2022-10-16T05:26:40;13.90;99.90
40964;DHT22;26693;51.168;4.138;2022-10-16T05:27:40;14.00;99.90
40964;DHT22;26693;51.168;4.138;2022-10-16T05:28:41;14.00;99.90
40964;DHT22;26693;51.168;4.138;2022-10-16T05:29:41;13.90;99.90
40964;DHT22;26693;51.168;4.138;2022-10-16T05:30:42;14.00;99.90
40964;DHT22;26693;51.168;4.138;2022-10-16T05:31:42;14.00;99.90
40964;DHT22;26693;51.168;4.138;2022-10-16T05:32:50;14.00;99.90
40964;DHT22;26693;51.168;4.138;2022-10-16T05:33:50;14.10;99.90
40964;DHT22;26693;51.168;4.138;2022-10-16T05:34:51;14.10;99.90
40964;DHT22;26693;51.168;4.138;2022-10-16T05:35:52;14.10;99.90
40964;DHT22;26693;51.168;4.138;2022-10-16T05:36:52;14.20;99.90
40964;DHT22;26693;51.168;4.138;2022-10-16T05:37:53;14.30;99.90
40964;DHT22;26693;51.168;4.138;2022-10-16T05:38:53;14.20;99.90
40964;DHT22;26693;51.168;4.138;2022-10-16T05:39:54;14.20;99.90
40964;DHT22;26693;51.168;4.138;2022-10-16T05:40:54;14.20;99.90
40964;DHT22;26693;51.168;4.138;2022-10-16T05:41:56;14.30;99.90
40964;DHT22;26693;51.168;4.138;2022-10-16T05:42:56;14.20;99.90
40964;DHT22;26693;51.168;4.138;2022-10-16T05:43:57;14.20;99.90
40964;DHT22;26693;51.168;4.138;2022-10-16T05:44:58;14.20;99.90
40964;DHT22;26693;51.168;4.138;2022-10-16T05:46:04;14.20;99.90
40964;DHT22;26693;51.168;4.138;2022-10-16T05:47:05;14.10;99.90
40964;DHT22;26693;51.168;4.138;2022-10-16T05:48:05;14.10;99.90
40964;DHT22;26693;51.168;4.138;2022-10-16T05:49:06;14.20;99.90
40964;DHT22;26693;51.168;4.138;2022-10-16T05:50:07;14.20;99.90
40964;DHT22;26693;51.168;4.138;2022-10-16T05:51:11;14.30;99.90
40964;DHT22;26693;51.168;4.138;2022-10-16T05:52:11;14.30;99.90
40964;DHT22;26693;51.168;4.138;2022-10-16T05:53:12;14.40;99.90
40964;DHT22;26693;51.168;4.138;2022-10-16T05:54:13;14.30;99.90
40964;DHT22;26693;51.168;4.138;2022-10-16T05:55:13;14.30;99.90
40964;DHT22;26693;51.168;4.138;2022-10-16T05:56:14;14.30;99.90
40964;DHT22;26693;51.168;4.138;2022-10-16T05:57:15;14.30;99.90
40964;DHT22;26693;51.168;4.138;2022-10-16T05:58:15;14.30;99.90
40964;DHT22;26693;51.168;4.138;2022-10-16T05:59:16;14.30;99.90
40964;DHT22;26693;51.168;4.138;2022-10-16T06:00:16;14.20;99.90
40964;DHT22;26693;51.168;4.138;2022-10-16T06:01:18;14.10;99.90
40964;DHT22;26693;51.168;4.138;2022-10-16T06:02:19;14.10;99.90
40964;DHT22;26693;51.168;4.138;2022-10-16T06:03:19;14.10;99.90
40964;DHT22;26693;51.168;4.138;2022-10-16T06:04:20;14.00;99.90
40964;DHT22;26693;51.168;4.138;2022-10-16T06:05:20;14.00;99.90
40964;DHT22;26693;51.168;4.138;2022-10-16T06:06:24;13.90;99.90
40964;DHT22;26693;51.168;4.138;2022-10-16T06:07:26;13.90;99.90
40964;DHT22;26693;51.168;4.138;2022-10-16T06:08:26;13.90;99.90
40964;DHT22;26693;51.168;4.138;2022-10-16T06:09:27;14.10;99.90
40964;DHT22;26693;51.168;4.138;2022-10-16T06:10:27;14.10;99.90
40964;DHT22;26693;51.168;4.138;2022-10-16T06:11:30;14.10;99.90
40964;DHT22;26693;51.168;4.138;2022-10-16T06:12:31;14.10;99.90
40964;DHT22;26693;51.168;4.138;2022-10-16T06:13:32;14.10;99.90
40964;DHT22;26693;51.168;4.138;2022-10-16T06:14:32;14.20;99.90
40964;DHT22;26693;51.168;4.138;2022-10-16T06:15:33;14.20;99.90
40964;DHT22;26693;51.168;4.138;2022-10-16T06:16:35;14.30;99.90
40964;DHT22;26693;51.168;4.138;2022-10-16T06:17:36;14.30;99.90
40964;DHT22;26693;51.168;4.138;2022-10-16T06:18:36;14.20;99.90
40964;DHT22;26693;51.168;4.138;2022-10-16T06:19:37;14.30;99.90
40964;DHT22;26693;51.168;4.138;2022-10-16T06:20:37;14.20;99.90
40964;DHT22;26693;51.168;4.138;2022-10-16T06:21:38;14.20;99.90
40964;DHT22;26693;51.168;4.138;2022-10-16T06:22:38;14.30;99.90
40964;DHT22;26693;51.168;4.138;2022-10-16T06:23:39;14.40;99.90
40964;DHT22;26693;51.168;4.138;2022-10-16T06:24:40;14.30;99.90
40964;DHT22;26693;51.168;4.138;2022-10-16T06:25:40;14.30;99.90
40964;DHT22;26693;51.168;4.138;2022-10-16T06:26:41;14.40;99.90
40964;DHT22;26693;51.168;4.138;2022-10-16T06:27:41;14.20;99.90
40964;DHT22;26693;51.168;4.138;2022-10-16T06:28:42;14.20;99.90
40964;DHT22;26693;51.168;4.138;2022-10-16T06:29:42;14.20;99.90
40964;DHT22;26693;51.168;4.138;2022-10-16T06:30:43;14.10;99.90
40964;DHT22;26693;51.168;4.138;2022-10-16T06:31:44;14.10;99.90
40964;DHT22;26693;51.168;4.138;2022-10-16T06:32:44;14.20;99.90
40964;DHT22;26693;51.168;4.138;2022-10-16T06:33:45;14.20;99.90
40964;DHT22;26693;51.168;4.138;2022-10-16T06:34:47;14.20;99.90
40964;DHT22;26693;51.168;4.138;2022-10-16T06:35:47;14.20;99.90
40964;DHT22;26693;51.168;4.138;2022-10-16T06:36:48;14.20;99.90
40964;DHT22;26693;51.168;4.138;2022-10-16T06:37:48;14.20;99.90
40964;DHT22;26693;51.168;4.138;2022-10-16T06:38:49;14.30;99.90
40964;DHT22;26693;51.168;4.138;2022-10-16T06:39:50;14.30;99.90
40964;DHT22;26693;51.168;4.138;2022-10-16T06:40:53;14.20;99.90
40964;DHT22;26693;51.168;4.138;2022-10-16T06:41:54;14.30;99.90
40964;DHT22;26693;51.168;4.138;2022-10-16T06:42:55;14.40;99.90